createdAt,value
2019-05-12T00:02:03.974Z,98295.67
2019-05-12T00:04:34.198Z,98291.92
2019-05-12T00:07:08.695Z,98299.19
2019-05-12T00:09:40.541Z,98298.98
2019-05-12T00:12:11.217Z,98294.89
2019-05-12T00:14:41.447Z,98301.19
2019-05-12T00:17:11.673Z,98302.97
2019-05-12T00:19:41.888Z,98309.66
2019-05-12T00:22:13.787Z,98313.42
2019-05-12T00:24:43.993Z,98324.39
2019-05-12T00:27:17.831Z,98328.47
2019-05-12T00:29:48.567Z,98338.19
2019-05-12T00:32:19.254Z,98332.89
2019-05-12T00:34:49.521Z,98339.92
2019-05-12T00:37:19.782Z,98345.44
2019-05-12T00:39:50.002Z,98355.56
2019-05-12T00:42:20.245Z,98349.34
2019-05-12T00:44:50.453Z,98356.98
2019-05-12T00:47:20.671Z,98362.17
2019-05-12T00:49:50.906Z,98361.91
2019-05-12T00:52:21.311Z,98360.32
2019-05-12T00:54:51.603Z,98359.56
2019-05-12T00:57:21.817Z,98360.91
2019-05-12T00:59:52.031Z,98363.02
2019-05-12T01:02:22.274Z,98358.83
2019-05-12T01:04:52.458Z,98373.36
2019-05-12T01:07:22.675Z,98374.93
2019-05-12T01:09:52.875Z,98377.66
2019-05-12T01:12:23.169Z,98392.92
2019-05-12T01:14:53.393Z,98395.43
2019-05-12T01:17:23.625Z,98403.41
2019-05-12T01:19:54.087Z,98401.03
2019-05-12T01:22:24.321Z,98396.60
2019-05-12T01:24:57.710Z,98407.20
2019-05-12T01:27:28.753Z,98402.03
2019-05-12T01:29:59.067Z,98399.69
2019-05-12T01:32:38.254Z,98405.17
2019-05-12T01:35:10.285Z,98411.80
2019-05-12T01:37:40.513Z,98420.88
2019-05-12T01:40:11.343Z,98421.68
2019-05-12T01:42:41.582Z,98422.87
2019-05-12T01:45:13.443Z,98439.57
2019-05-12T01:47:43.659Z,98441.69
2019-05-12T01:50:14.241Z,98442.65
2019-05-12T01:52:44.461Z,98450.33
2019-05-12T01:55:14.797Z,98446.64
2019-05-12T01:57:45.015Z,98455.24
2019-05-12T02:00:18.165Z,98454.33
2019-05-12T02:02:48.212Z,98470.33
2019-05-12T02:05:18.524Z,98461.63
2019-05-12T02:07:50.392Z,98482.34
2019-05-12T02:10:21.513Z,98486.05
2019-05-12T02:12:51.836Z,98494.74
2019-05-12T02:15:22.848Z,98495.95
2019-05-12T02:17:53.093Z,98503.30
2019-05-12T02:20:38.228Z,98508.57
2019-05-12T02:23:09.294Z,98513.38
2019-05-12T02:25:39.680Z,98526.98
2019-05-12T02:28:09.909Z,98536.92
2019-05-12T02:30:41.810Z,98550.23
2019-05-12T02:33:15.655Z,98548.56
2019-05-12T02:35:44.505Z,98550.16
2019-05-12T02:38:14.843Z,98554.94
2019-05-12T02:40:45.052Z,98558.88
2019-05-12T02:43:15.645Z,98566.91
2019-05-12T02:45:46.044Z,98570.83
2019-05-12T02:48:16.266Z,98570.75
2019-05-12T02:50:46.724Z,98581.89
2019-05-12T02:53:17.041Z,98597.77
2019-05-12T02:55:49.276Z,98596.37
2019-05-12T02:58:25.412Z,98610.48
2019-05-12T03:00:55.887Z,98626.46
2019-05-12T03:03:29.527Z,98617.66
2019-05-12T03:06:01.100Z,98617.12
2019-05-12T03:08:34.907Z,98621.45
2019-05-12T03:11:06.489Z,98627.95
2019-05-12T03:13:36.838Z,98633.09
2019-05-12T03:16:07.015Z,98635.09
2019-05-12T03:18:37.321Z,98637.14
2019-05-12T03:21:07.532Z,98650.64
2019-05-12T03:23:37.769Z,98654.59
2019-05-12T03:26:08.035Z,98653.17
2019-05-12T03:28:38.250Z,98666.66
2019-05-12T03:31:09.349Z,98670.57
2019-05-12T03:33:43.153Z,98682.58
2019-05-12T03:36:17.221Z,98677.59
2019-05-12T03:38:44.697Z,98686.56
2019-05-12T03:41:15.279Z,98685.20
2019-05-12T03:43:45.571Z,98694.08
2019-05-12T03:46:15.766Z,98695.22
2019-05-12T03:48:48.602Z,98700.95
2019-05-12T03:51:18.821Z,98709.01
2019-05-12T03:53:49.021Z,98719.56
2019-05-12T03:56:19.249Z,98712.87
2019-05-12T03:58:49.494Z,98722.85
2019-05-12T04:01:19.698Z,98725.82
2019-05-12T04:03:49.931Z,98728.25
2019-05-12T04:06:20.161Z,98738.95
2019-05-12T04:08:50.398Z,98740.14
2019-05-12T04:11:20.654Z,98741.63
2019-05-12T04:13:50.957Z,98749.75
2019-05-12T04:16:24.460Z,98752.20
2019-05-12T04:18:55.139Z,98761.09
2019-05-12T04:21:26.893Z,98761.52
2019-05-12T04:23:57.075Z,98760.39
2019-05-12T04:26:27.272Z,98771.36
2019-05-12T04:28:57.488Z,98767.04
2019-05-12T04:31:27.704Z,98771.16
2019-05-12T04:33:57.911Z,98774.09
2019-05-12T04:36:28.095Z,98777.98
2019-05-12T04:38:58.326Z,98773.56
2019-05-12T04:41:28.507Z,98778.08
2019-05-12T04:43:58.739Z,98787.02
2019-05-12T04:46:28.925Z,98793.67
2019-05-12T04:48:59.172Z,98793.03
2019-05-12T04:51:29.345Z,98799.36
2019-05-12T04:53:59.588Z,98798.76
2019-05-12T04:56:30.003Z,98804.14
2019-05-12T04:59:00.268Z,98809.62
2019-05-12T05:01:30.563Z,98807.95
2019-05-12T05:04:00.789Z,98816.62
2019-05-12T05:06:34.001Z,98812.14
2019-05-12T05:09:05.123Z,98811.41
2019-05-12T05:11:35.712Z,98810.99
2019-05-12T05:14:06.664Z,98819.70
2019-05-12T05:16:36.955Z,98830.91
2019-05-12T05:19:07.358Z,98827.87
2019-05-12T05:21:37.576Z,98829.98
2019-05-12T05:24:07.778Z,98834.20
2019-05-12T05:26:37.989Z,98844.71
2019-05-12T05:29:09.389Z,98844.67
2019-05-12T05:31:40.243Z,98851.13
2019-05-12T05:34:10.508Z,98853.84
2019-05-12T05:36:40.795Z,98856.22
2019-05-12T05:39:13.681Z,98857.77
2019-05-12T05:41:48.889Z,98864.77
2019-05-12T05:44:18.263Z,98870.54
2019-05-12T05:46:50.248Z,98878.94
2019-05-12T05:49:20.607Z,98882.72
2019-05-12T05:51:55.105Z,98880.72
2019-05-12T05:54:31.148Z,98877.34
2019-05-12T05:56:59.680Z,98886.24
2019-05-12T05:59:31.461Z,98883.63
2019-05-12T06:01:58.542Z,98897.98
2019-05-12T06:04:28.781Z,98894.59
2019-05-12T06:06:58.958Z,98889.56
2019-05-12T06:09:29.198Z,98895.80
2019-05-12T06:12:05.171Z,98906.83
2019-05-12T06:14:34.060Z,98906.16
2019-05-12T06:17:04.312Z,98907.97
2019-05-12T06:19:34.719Z,98908.20
2019-05-12T06:22:09.028Z,98916.17
2019-05-12T06:24:36.933Z,98917.56
2019-05-12T06:27:15.172Z,98922.88
2019-05-12T06:29:39.113Z,98922.98
2019-05-12T06:32:11.030Z,98927.89
2019-05-12T06:34:43.454Z,98936.20
2019-05-12T06:37:16.988Z,98932.94
2019-05-12T06:39:45.378Z,98943.19
2019-05-12T06:42:17.077Z,98938.10
2019-05-12T06:44:48.972Z,98941.55
2019-05-12T06:47:19.378Z,98944.20
2019-05-12T06:49:56.453Z,98949.92
2019-05-12T06:52:23.624Z,98949.34
2019-05-12T06:54:56.559Z,98951.80
2019-05-12T06:57:28.766Z,98953.48
2019-05-12T06:59:57.728Z,98958.84
2019-05-12T07:02:30.200Z,98963.63
2019-05-12T07:05:00.033Z,98965.13
2019-05-12T07:07:38.826Z,98963.00
2019-05-12T07:10:11.599Z,98969.55
2019-05-12T07:12:43.471Z,98966.14
2019-05-12T07:15:07.137Z,98972.81
2019-05-12T07:17:49.652Z,98980.93
2019-05-12T07:20:17.207Z,98985.55
2019-05-12T07:22:48.598Z,98983.06
2019-05-12T07:25:24.518Z,98981.51
2019-05-12T07:27:54.927Z,98989.81
2019-05-12T07:30:31.856Z,98991.53
2019-05-12T07:33:04.281Z,98994.84
2019-05-12T07:35:34.732Z,98994.47
2019-05-12T07:38:05.758Z,98999.34
2019-05-12T07:40:37.931Z,98997.94
2019-05-12T07:43:18.558Z,98999.70
2019-05-12T07:45:46.056Z,99006.14
2019-05-12T07:48:16.258Z,99011.04
2019-05-12T07:50:50.211Z,99008.36
2019-05-12T07:53:18.494Z,99010.50
2019-05-12T07:55:49.550Z,99017.70
2019-05-12T07:58:20.006Z,99020.52
2019-05-12T08:00:53.863Z,99033.99
2019-05-12T08:03:24.311Z,99033.35
2019-05-12T08:05:57.549Z,99037.83
2019-05-12T08:08:25.944Z,99037.89
2019-05-12T08:10:56.251Z,99035.67
2019-05-12T08:13:31.181Z,99040.56
2019-05-12T08:15:58.378Z,99039.63
2019-05-12T08:18:30.507Z,99046.08
2019-05-12T08:21:00.529Z,99044.34
2019-05-12T08:23:30.758Z,99050.36
2019-05-12T08:26:03.684Z,99053.73
2019-05-12T08:28:35.771Z,99055.52
2019-05-12T08:31:05.026Z,99055.98
2019-05-12T08:33:35.791Z,99051.08
2019-05-12T08:36:11.414Z,99058.58
2019-05-12T08:38:38.067Z,99058.91
2019-05-12T08:41:08.314Z,99055.09
2019-05-12T08:43:40.517Z,99062.61
2019-05-12T08:46:12.853Z,99059.32
2019-05-12T08:48:44.630Z,99073.16
2019-05-12T08:51:19.393Z,99070.77
2019-05-12T08:53:46.218Z,99074.14
2019-05-12T08:56:19.426Z,99075.91
2019-05-12T08:58:51.396Z,99078.25
2019-05-12T09:01:25.772Z,99079.56
2019-05-12T09:03:53.354Z,99078.52
2019-05-12T09:06:24.168Z,99085.34
2019-05-12T09:08:54.536Z,99097.44
2019-05-12T09:11:24.753Z,99089.13
2019-05-12T09:14:00.643Z,99091.55
2019-05-12T09:16:26.891Z,99101.67
2019-05-12T09:18:57.178Z,99097.94
2019-05-12T09:21:31.579Z,99098.73
2019-05-12T09:23:59.316Z,99101.62
2019-05-12T09:26:29.515Z,99106.75
2019-05-12T09:28:59.736Z,99098.70
2019-05-12T09:31:30.517Z,99104.16
2019-05-12T09:34:05.992Z,99110.36
2019-05-12T09:36:33.792Z,99112.92
2019-05-12T09:39:06.897Z,99111.52
2019-05-12T09:41:42.762Z,99118.88
2019-05-12T09:44:09.816Z,99115.81
2019-05-12T09:46:40.012Z,99119.63
2019-05-12T09:49:10.255Z,99119.09
2019-05-12T09:51:45.690Z,99116.03
2019-05-12T09:54:14.083Z,99130.29
2019-05-12T09:56:44.418Z,99128.30
2019-05-12T09:59:22.631Z,99130.79
2019-05-12T10:01:48.222Z,99140.75
2019-05-12T10:04:19.693Z,99134.20
2019-05-12T10:06:49.979Z,99141.81
2019-05-12T10:09:20.218Z,99153.41
2019-05-12T10:11:53.870Z,99151.48
2019-05-12T10:14:23.545Z,99156.95
2019-05-12T10:16:53.909Z,99152.31
2019-05-12T10:19:24.133Z,99149.95
2019-05-12T10:21:58.206Z,99145.63
2019-05-12T10:24:26.303Z,99160.05
2019-05-12T10:26:57.319Z,99153.08
2019-05-12T10:29:30.625Z,99150.69
2019-05-12T10:32:03.975Z,99153.41
2019-05-12T10:34:38.169Z,99159.73
2019-05-12T10:37:05.805Z,99158.56
2019-05-12T10:39:36.025Z,99167.45
2019-05-12T10:42:06.235Z,99163.35
2019-05-12T10:44:40.656Z,99169.34
2019-05-12T10:47:08.389Z,99167.27
2019-05-12T10:49:38.755Z,99173.81
2019-05-12T10:52:09.809Z,99173.32
2019-05-12T10:54:40.052Z,99171.84
2019-05-12T10:57:10.272Z,99186.89
2019-05-12T10:59:46.774Z,99187.92
2019-05-12T11:02:13.940Z,99189.30
2019-05-12T11:04:44.253Z,99187.66
2019-05-12T11:07:14.463Z,99193.41
2019-05-12T11:09:44.709Z,99202.28
2019-05-12T11:12:19.185Z,99200.64
2019-05-12T11:14:49.025Z,99191.06
2019-05-12T11:17:19.345Z,99189.57
2019-05-12T11:19:51.513Z,99186.05
2019-05-12T11:22:21.519Z,99187.44
2019-05-12T11:24:53.518Z,99192.59
2019-05-12T11:27:24.024Z,99186.17
2019-05-12T11:29:54.450Z,99183.88
2019-05-12T11:32:28.963Z,99178.55
2019-05-12T11:34:56.770Z,99176.34
2019-05-12T11:37:29.031Z,99182.48
2019-05-12T11:39:58.923Z,99180.48
2019-05-12T11:42:29.214Z,99188.89
2019-05-12T11:44:59.431Z,99185.27
2019-05-12T11:47:29.681Z,99186.50
2019-05-12T11:50:05.064Z,99184.74
2019-05-12T11:52:33.403Z,99184.67
2019-05-12T11:55:07.615Z,99190.55
2019-05-12T11:57:37.832Z,99191.55
2019-05-12T12:00:10.142Z,99183.00
2019-05-12T12:02:40.344Z,99209.45
2019-05-12T12:05:10.894Z,99199.30
2019-05-12T12:07:50.614Z,99184.11
2019-05-12T12:10:14.281Z,99200.38
2019-05-12T12:12:48.965Z,99208.06
2019-05-12T12:15:23.778Z,99188.02
2019-05-12T12:17:49.359Z,99183.62
2019-05-12T12:20:22.471Z,99189.70
2019-05-12T12:22:54.120Z,99182.70
2019-05-12T12:25:25.541Z,99192.48
2019-05-12T12:27:55.843Z,99198.30
2019-05-12T12:30:26.086Z,99190.02
2019-05-12T12:33:00.298Z,99200.41
2019-05-12T12:35:28.254Z,99191.14
2019-05-12T12:37:58.484Z,99201.42
2019-05-12T12:40:30.785Z,99206.30
2019-05-12T12:43:03.411Z,99202.22
2019-05-12T12:45:46.880Z,99196.21
2019-05-12T12:48:19.312Z,99197.78
2019-05-12T12:50:49.158Z,99199.14
2019-05-12T12:53:19.462Z,99206.09
2019-05-12T12:55:49.680Z,99213.21
2019-05-12T12:58:21.234Z,99216.97
2019-05-12T13:00:56.347Z,99212.53
2019-05-12T13:03:27.705Z,99229.95
2019-05-12T13:05:55.705Z,99223.02
2019-05-12T13:08:25.925Z,99217.23
2019-05-12T13:10:56.156Z,99220.88
2019-05-12T13:13:26.371Z,99220.03
2019-05-12T13:15:56.596Z,99215.91
2019-05-12T13:18:33.071Z,99220.12
2019-05-12T13:20:58.765Z,99217.00
2019-05-12T13:23:38.047Z,99214.07
2019-05-12T13:26:00.963Z,99223.52
2019-05-12T13:28:31.167Z,99224.22
2019-05-12T13:31:11.053Z,99226.84
2019-05-12T13:33:33.856Z,99219.91
2019-05-12T13:36:04.521Z,99221.94
2019-05-12T13:38:36.412Z,99229.79
2019-05-12T13:41:09.503Z,99237.23
2019-05-12T13:43:38.859Z,99237.48
2019-05-12T13:46:09.971Z,99224.74
2019-05-12T13:48:40.175Z,99229.49
2019-05-12T13:51:15.101Z,99222.06
2019-05-12T13:53:46.506Z,99219.17
2019-05-12T13:56:19.142Z,99230.33
2019-05-12T13:58:46.314Z,99227.55
2019-05-12T14:01:20.514Z,99223.79
2019-05-12T14:03:50.636Z,99219.53
2019-05-12T14:06:23.053Z,99222.15
2019-05-12T14:08:53.810Z,99231.12
2019-05-12T14:11:25.853Z,99235.39
2019-05-12T14:13:56.062Z,99230.19
2019-05-12T14:16:26.485Z,99229.50
2019-05-12T14:19:00.278Z,99232.97
2019-05-12T14:21:33.027Z,99228.88
2019-05-12T14:24:00.552Z,99234.38
2019-05-12T14:26:30.821Z,99228.18
2019-05-12T14:29:01.043Z,99220.97
2019-05-12T14:31:36.376Z,99226.20
2019-05-12T14:34:04.297Z,99231.80
2019-05-12T14:36:34.712Z,99210.73
2019-05-12T14:39:10.196Z,99217.09
2019-05-12T14:41:52.861Z,99217.05
2019-05-12T14:44:15.699Z,99223.44
2019-05-12T14:46:50.495Z,99218.70
2019-05-12T14:49:20.277Z,99218.78
2019-05-12T14:51:49.823Z,99217.25
2019-05-12T14:54:20.023Z,99220.56
2019-05-12T14:56:55.420Z,99201.01
2019-05-12T14:59:24.146Z,99198.93
2019-05-12T15:01:59.184Z,99190.45
2019-05-12T15:04:29.853Z,99184.61
2019-05-12T15:06:59.760Z,99209.84
2019-05-12T15:09:29.840Z,99217.52
2019-05-12T15:12:00.082Z,99208.75
2019-05-12T15:14:37.793Z,99203.83
2019-05-12T15:17:03.674Z,99208.23
2019-05-12T15:19:34.106Z,99206.44
2019-05-12T15:22:07.602Z,99206.67
2019-05-12T15:24:36.670Z,99201.36
2019-05-12T15:27:06.929Z,99199.84
2019-05-12T15:29:37.154Z,99203.25
2019-05-12T15:32:07.454Z,99226.06
2019-05-12T15:34:37.682Z,99206.50
2019-05-12T15:37:07.942Z,99200.53
2019-05-12T15:39:38.143Z,99205.22
2019-05-12T15:42:08.483Z,99205.44
2019-05-12T15:44:38.673Z,99206.48
2019-05-12T15:47:10.027Z,99204.38
2019-05-12T15:49:40.245Z,99215.13
2019-05-12T15:52:10.485Z,99220.30
2019-05-12T15:54:45.826Z,99219.15
2019-05-12T15:57:13.599Z,99231.63
2019-05-12T15:59:43.996Z,99226.87
2019-05-12T16:02:16.832Z,99231.00
2019-05-12T16:04:48.485Z,99235.33
2019-05-12T16:07:18.168Z,99240.17
2019-05-12T16:09:48.452Z,99243.70
2019-05-12T16:12:23.411Z,99253.45
2019-05-12T16:14:50.639Z,99254.30
2019-05-12T16:17:25.444Z,99260.47
2019-05-12T16:19:54.135Z,99262.91
2019-05-12T16:22:24.412Z,99263.37
2019-05-12T16:24:54.621Z,99264.64
2019-05-12T16:27:33.134Z,99267.11
2019-05-12T16:29:56.892Z,99276.03
2019-05-12T16:32:32.509Z,99267.16
2019-05-12T16:34:59.089Z,99276.14
2019-05-12T16:37:31.334Z,99279.78
2019-05-12T16:40:01.256Z,99290.63
2019-05-12T16:42:33.485Z,99294.68
2019-05-12T16:45:08.220Z,99289.69
2019-05-12T16:47:36.248Z,99286.75
2019-05-12T16:50:15.279Z,99293.44
2019-05-12T16:52:42.812Z,99296.58
2019-05-12T16:55:13.268Z,99292.56
2019-05-12T16:57:51.635Z,99294.73
2019-05-12T17:00:16.246Z,99291.22
2019-05-12T17:02:53.779Z,99291.89
2019-05-12T17:05:20.545Z,99294.16
2019-05-12T17:07:55.789Z,99302.31
2019-05-12T17:10:24.390Z,99305.78
2019-05-12T17:12:54.955Z,99297.23
2019-05-12T17:15:25.215Z,99302.47
2019-05-12T17:18:01.152Z,99300.58
2019-05-12T17:20:27.435Z,99306.19
2019-05-12T17:23:00.127Z,99307.53
2019-05-12T17:25:30.268Z,99316.55
2019-05-12T17:28:03.970Z,99318.83
2019-05-12T17:30:34.407Z,99324.11
2019-05-12T17:33:05.355Z,99321.19
2019-05-12T17:35:35.776Z,99323.47
2019-05-12T17:38:06.101Z,99326.15
2019-05-12T17:40:36.407Z,99329.67
2019-05-12T17:43:11.547Z,99326.42
2019-05-12T17:45:38.588Z,99328.95
2019-05-12T17:48:08.832Z,99333.88
2019-05-12T17:50:40.667Z,99333.56
2019-05-12T17:53:13.631Z,99336.67
2019-05-12T17:55:51.281Z,99340.95
2019-05-12T17:58:16.740Z,99347.20
2019-05-12T18:00:51.682Z,99359.63
2019-05-12T18:03:22.053Z,99362.08
2019-05-12T18:05:52.976Z,99361.09
2019-05-12T18:08:32.016Z,99358.55
2019-05-12T18:10:55.001Z,99361.78
2019-05-12T18:13:28.078Z,99366.62
2019-05-12T18:15:57.209Z,99372.11
2019-05-12T18:18:32.777Z,99373.03
2019-05-12T18:20:59.415Z,99377.29
2019-05-12T18:23:30.384Z,99376.95
2019-05-12T18:26:03.137Z,99380.27
2019-05-12T18:28:33.484Z,99384.44
2019-05-12T18:31:04.438Z,99388.58
2019-05-12T18:33:42.559Z,99391.27
2019-05-12T18:36:06.982Z,99393.94
2019-05-12T18:38:37.311Z,99397.24
2019-05-12T18:41:07.912Z,99400.73
2019-05-12T18:43:38.241Z,99403.88
2019-05-12T18:46:09.370Z,99408.50
2019-05-12T18:48:39.793Z,99411.17
2019-05-12T18:51:13.825Z,99418.11
2019-05-12T18:53:43.850Z,99411.69
2019-05-12T18:56:19.971Z,99421.10
2019-05-12T18:58:46.121Z,99425.83
2019-05-12T19:01:16.371Z,99431.81
2019-05-12T19:03:50.795Z,99433.08
2019-05-12T19:06:18.701Z,99436.00
2019-05-12T19:08:48.969Z,99442.32
2019-05-12T19:11:41.876Z,99445.57
2019-05-12T19:14:04.433Z,99452.18
2019-05-12T19:16:34.838Z,99453.10
2019-05-12T19:19:09.750Z,99458.78
2019-05-12T19:21:37.093Z,99458.98
2019-05-12T19:24:08.736Z,99460.00
2019-05-12T19:26:40.474Z,99463.74
2019-05-12T19:29:10.880Z,99467.59
2019-05-12T19:31:45.171Z,99466.17
2019-05-12T19:34:19.833Z,99466.62
2019-05-12T19:36:49.477Z,99470.87
2019-05-12T19:39:17.196Z,99476.86
2019-05-12T19:41:47.783Z,99482.58
2019-05-12T19:44:20.179Z,99478.95
2019-05-12T19:46:49.916Z,99492.67
2019-05-12T19:49:25.731Z,99494.70
2019-05-12T19:51:54.266Z,99495.61
2019-05-12T19:54:25.566Z,99493.05
2019-05-12T19:56:55.933Z,99495.48
2019-05-12T19:59:26.205Z,99497.59
2019-05-12T20:01:56.450Z,99496.88
2019-05-12T20:04:33.524Z,99499.92
2019-05-12T20:06:58.642Z,99504.10
2019-05-12T20:09:28.882Z,99508.16
2019-05-12T20:12:01.321Z,99506.46
2019-05-12T20:14:31.051Z,99507.22
2019-05-12T20:17:01.274Z,99513.40
2019-05-12T20:19:33.888Z,99515.67
2019-05-12T20:22:03.635Z,99511.70
2019-05-12T20:24:33.970Z,99516.48
2019-05-12T20:27:04.205Z,99517.17
2019-05-12T20:29:35.276Z,99513.30
2019-05-12T20:32:05.751Z,99515.33
2019-05-12T20:34:48.470Z,99518.64
2019-05-12T20:37:13.329Z,99515.81
2019-05-12T20:39:39.862Z,99521.86
2019-05-12T20:42:10.325Z,99523.52
2019-05-12T20:44:40.578Z,99531.38
2019-05-12T20:47:10.764Z,99526.43
2019-05-12T20:49:42.895Z,99526.78
2019-05-12T20:52:14.357Z,99528.70
2019-05-12T20:54:49.195Z,99528.84
2019-05-12T20:57:16.882Z,99531.66
2019-05-12T20:59:47.111Z,99535.91
2019-05-12T21:02:17.332Z,99538.80
2019-05-12T21:05:00.200Z,99545.14
2019-05-12T21:07:22.148Z,99540.12
2019-05-12T21:09:51.462Z,99543.81
2019-05-12T21:12:24.055Z,99541.89
2019-05-12T21:15:00.691Z,99540.92
2019-05-12T21:17:39.595Z,99544.72
2019-05-12T21:19:59.486Z,99546.97
2019-05-12T21:22:29.390Z,99549.05
2019-05-12T21:24:59.619Z,99547.48
2019-05-12T21:27:29.824Z,99545.11
2019-05-12T21:30:00.550Z,99547.91
2019-05-12T21:32:33.896Z,99550.61
2019-05-12T21:35:18.092Z,99554.32
2019-05-12T21:37:45.643Z,99554.93
2019-05-12T21:40:10.592Z,99557.16
2019-05-12T21:42:40.810Z,99559.52
2019-05-12T21:45:14.318Z,99554.29
2019-05-12T21:47:44.505Z,99563.56
2019-05-12T21:50:15.331Z,99566.89
2019-05-12T21:52:45.564Z,99568.70
2019-05-12T21:55:21.638Z,99568.88
2019-05-12T21:57:53.806Z,99567.50
2019-05-12T22:00:39.679Z,99568.75
2019-05-12T22:03:15.276Z,99567.04
2019-05-12T22:05:52.216Z,99567.14
2019-05-12T22:08:25.437Z,99570.53
2019-05-12T22:11:09.582Z,99568.20
2019-05-12T22:13:46.836Z,99569.42
2019-05-12T22:16:14.151Z,99572.38
2019-05-12T22:18:47.704Z,99572.00
2019-05-12T22:21:16.453Z,99573.90
2019-05-12T22:23:51.222Z,99577.94
2019-05-12T22:26:18.727Z,99583.09
2019-05-12T22:28:50.974Z,99591.89
2019-05-12T22:31:20.835Z,99594.23
2019-05-12T22:33:53.455Z,99594.75
2019-05-12T22:36:26.798Z,99595.06
2019-05-12T22:39:00.917Z,99589.86
2019-05-12T22:41:30.307Z,99588.95
2019-05-12T22:43:58.831Z,99591.95
2019-05-12T22:46:31.235Z,99590.27
2019-05-12T22:49:00.965Z,99599.98
2019-05-12T22:51:31.226Z,99597.87
2019-05-12T22:54:07.086Z,99597.23
2019-05-12T22:56:34.242Z,99596.14
2019-05-12T22:59:04.730Z,99598.58
2019-05-12T23:01:41.616Z,99601.14
2019-05-12T23:04:07.209Z,99601.95
2019-05-12T23:06:42.186Z,99610.41
2019-05-12T23:09:10.563Z,99612.44
2019-05-12T23:11:40.797Z,99615.94
2019-05-12T23:14:20.728Z,99614.80
2019-05-12T23:16:47.355Z,99612.03
2019-05-12T23:19:17.569Z,99616.46
2019-05-12T23:21:49.452Z,99614.86
2019-05-12T23:24:20.019Z,99618.20
2019-05-12T23:26:50.259Z,99620.77
2019-05-12T23:29:25.706Z,99621.55
2019-05-12T23:31:53.712Z,99624.84
2019-05-12T23:34:24.061Z,99619.06
2019-05-12T23:36:56.931Z,99617.40
2019-05-12T23:39:26.245Z,99616.13
2019-05-12T23:41:56.491Z,99620.45
2019-05-12T23:44:26.703Z,99615.61
2019-05-12T23:46:57.063Z,99619.33
2019-05-12T23:49:27.292Z,99625.97
2019-05-12T23:51:57.535Z,99622.31
2019-05-12T23:54:27.856Z,99618.27
2019-05-12T23:56:58.123Z,99626.27
2019-05-12T23:59:28.334Z,99620.98
